Details From SBUL - TEN CEL AV CESAR BOMBONATO
To SBGO - Santo Genoveva
Flight Number -
Tags decoded
Created
Modified
Stats Distance 147 nm / 272 km
Max Altitude 0 ft / 0 m
Waypoints 2
Social Downloads 2
Likes 0
Share VATSIM

Download

Looking for another format? Having issues loading an existing format? Contact us
Advertisement - Login to hide

Notes

Requested: SBUL CAL SBGO

Route

SBUL SBGO

ID Type Via Altitude (ft/m) Position (lat/lon) Dist (leg/tot) Name
O SBUL APT - 0 / 0 -18.88284 / -48.22559 - / 0 nm TEN CEL AV CESAR BOMBONATO
O SBGO APT - 0 / 0 -16.63203 / -49.22069 146 / 146 nm Santo Genoveva

Altitude Profile

Advertisement - Login to hide

SBUL

Details ICAO SBUL (UDI)
Name Uberlandia Airport Ten Cel AV Cesar Bombonato
Region Brazil
Timezone America/Sao_Paulo (UTC-2.0)
Stats Elevation 3,094 ft / 943 m (AMSL)
Location -18.883500° -48.225900°
Runways 1
Magnetic Variation 21.370° W

METAR

Not found

TAF

TAF SBUL 150808Z 1512/1524 01008KT 9999 SCT030TX28/1516Z TN23/1523Z TEMPO 1512/1521 34008KT 8000 TSRA SCT045 FEW048CB TEMPO 1521/1524 30007KT 7000 SHRA BKN040 FEW045TCU RMK PGO

Decode

Departure Runways

ID Width Length Bearing (true/mag) Surface Threshold Overrun Markings Lighting
04 148 ft / 45 m 6,920 ft / 2,109 m 22.57° / 43.94° ASPHALT 0 ft / 0 m 0 ft / 0 m PREC-APP EDGE THRESHOLD
22 148 ft / 45 m 6,920 ft / 2,109 m 202.57° / 223.94° ASPHALT 0 ft / 0 m 0 ft / 0 m PREC-APP EDGE THRESHOLD

SBGO

Details ICAO SBGO (GYN)
Name Goiania, Santa Genoveva
Region Brazil
Timezone America/Sao_Paulo (UTC-2.0)
Stats Elevation 2,451 ft / 747 m (AMSL)
Location -16.631900° -49.221100°
Runways 1
Magnetic Variation 21.097° W

METAR

SBGO 151500Z 27003KT 190V340 9999 SCT025 28/20 Q1015

Decode

TAF

TAF SBGO 151000Z 1512/1612 34008KT 9999 SCT025 TX30/1516Z TN21/1608Z BECMG 1514/1415 30007KT SCT035 FEW045TCU TEMPO 1517/1603 8000 TSRA SCT035 FEW045CB BECMG 1522/1524 34005KT FEW040 BECMG 1604/1606 01003KT CAVOK RMK PEJ

Decode

Destination Runways

ID Width Length Bearing (true/mag) Surface Threshold Overrun Markings Lighting
14 148 ft / 45 m 8,208 ft / 2,502 m 120.42° / 141.51° ASPHALT 715 ft / 218 m 0 ft / 0 m PREC-APP CENTERLINE EDGE THRESHOLD REIL-OMNI
32 148 ft / 45 m 8,208 ft / 2,502 m 300.41° / 321.51° ASPHALT 0 ft / 0 m 0 ft / 0 m PREC-APP CENTERLINE EDGE THRESHOLD REIL-OMNI

Popular Alternatives